sensor_id;sensor_type;location;lat;lon;timestamp;P1;durP1;ratioP1;P2;durP2;ratioP2
41572;SDS011;27286;47.870;19.006;2023-02-04T00:00:49;13.57;;;2.30;;
41572;SDS011;27286;47.870;19.006;2023-02-04T00:03:15;19.27;;;2.47;;
41572;SDS011;27286;47.870;19.006;2023-02-04T00:05:41;10.57;;;1.45;;
41572;SDS011;27286;47.870;19.006;2023-02-04T00:08:07;10.77;;;2.35;;
41572;SDS011;27286;47.870;19.006;2023-02-04T00:10:33;12.23;;;1.48;;
41572;SDS011;27286;47.870;19.006;2023-02-04T00:12:59;15.07;;;3.35;;
41572;SDS011;27286;47.870;19.006;2023-02-04T00:15:25;9.52;;;1.10;;
41572;SDS011;27286;47.870;19.006;2023-02-04T00:17:50;13.70;;;1.60;;
41572;SDS011;27286;47.870;19.006;2023-02-04T00:20:16;14.23;;;2.75;;
41572;SDS011;27286;47.870;19.006;2023-02-04T00:22:43;14.80;;;1.88;;
41572;SDS011;27286;47.870;19.006;2023-02-04T00:25:09;11.77;;;1.67;;
41572;SDS011;27286;47.870;19.006;2023-02-04T00:27:36;15.07;;;1.90;;
41572;SDS011;27286;47.870;19.006;2023-02-04T00:30:02;8.82;;;1.48;;
41572;SDS011;27286;47.870;19.006;2023-02-04T00:32:28;14.00;;;2.33;;
41572;SDS011;27286;47.870;19.006;2023-02-04T00:34:54;12.48;;;1.77;;
41572;SDS011;27286;47.870;19.006;2023-02-04T00:37:19;10.00;;;1.88;;
41572;SDS011;27286;47.870;19.006;2023-02-04T00:39:45;13.45;;;1.60;;
41572;SDS011;27286;47.870;19.006;2023-02-04T00:42:10;10.32;;;1.40;;
41572;SDS011;27286;47.870;19.006;2023-02-04T00:44:36;9.52;;;1.35;;
41572;SDS011;27286;47.870;19.006;2023-02-04T00:47:01;9.90;;;1.65;;
41572;SDS011;27286;47.870;19.006;2023-02-04T00:49:27;6.90;;;1.30;;
41572;SDS011;27286;47.870;19.006;2023-02-04T00:51:53;9.00;;;2.00;;
41572;SDS011;27286;47.870;19.006;2023-02-04T00:54:18;7.43;;;1.13;;
41572;SDS011;27286;47.870;19.006;2023-02-04T00:56:44;8.32;;;2.30;;
41572;SDS011;27286;47.870;19.006;2023-02-04T00:59:09;7.68;;;1.23;;
41572;SDS011;27286;47.870;19.006;2023-02-04T01:01:35;15.38;;;2.78;;
41572;SDS011;27286;47.870;19.006;2023-02-04T01:04:00;13.23;;;1.70;;
41572;SDS011;27286;47.870;19.006;2023-02-04T01:06:26;12.05;;;1.40;;
41572;SDS011;27286;47.870;19.006;2023-02-04T01:08:52;8.05;;;2.08;;
41572;SDS011;27286;47.870;19.006;2023-02-04T01:11:18;8.82;;;1.10;;
41572;SDS011;27286;47.870;19.006;2023-02-04T01:13:44;8.98;;;1.45;;
41572;SDS011;27286;47.870;19.006;2023-02-04T01:16:09;10.02;;;2.40;;
41572;SDS011;27286;47.870;19.006;2023-02-04T01:18:35;8.20;;;1.30;;
41572;SDS011;27286;47.870;19.006;2023-02-04T01:21:01;11.35;;;2.10;;
41572;SDS011;27286;47.870;19.006;2023-02-04T01:23:26;8.75;;;1.42;;
41572;SDS011;27286;47.870;19.006;2023-02-04T01:25:52;7.50;;;1.13;;
41572;SDS011;27286;47.870;19.006;2023-02-04T01:28:17;7.00;;;1.02;;
41572;SDS011;27286;47.870;19.006;2023-02-04T01:30:43;13.90;;;1.88;;
41572;SDS011;27286;47.870;19.006;2023-02-04T01:33:08;8.25;;;1.42;;
41572;SDS011;27286;47.870;19.006;2023-02-04T01:35:34;8.35;;;1.25;;
41572;SDS011;27286;47.870;19.006;2023-02-04T01:37:59;9.93;;;1.67;;
41572;SDS011;27286;47.870;19.006;2023-02-04T01:40:25;8.68;;;1.27;;
41572;SDS011;27286;47.870;19.006;2023-02-04T01:42:50;8.93;;;1.45;;
41572;SDS011;27286;47.870;19.006;2023-02-04T01:45:17;20.08;;;1.55;;
41572;SDS011;27286;47.870;19.006;2023-02-04T01:47:42;11.25;;;1.73;;
41572;SDS011;27286;47.870;19.006;2023-02-04T01:50:10;9.77;;;1.23;;
41572;SDS011;27286;47.870;19.006;2023-02-04T01:52:38;11.95;;;2.25;;
41572;SDS011;27286;47.870;19.006;2023-02-04T01:55:09;9.93;;;1.52;;
41572;SDS011;27286;47.870;19.006;2023-02-04T01:57:38;9.45;;;2.13;;
41572;SDS011;27286;47.870;19.006;2023-02-04T02:00:05;6.75;;;1.20;;
41572;SDS011;27286;47.870;19.006;2023-02-04T02:05:16;10.35;;;1.52;;
41572;SDS011;27286;47.870;19.006;2023-02-04T02:07:45;5.97;;;0.75;;
41572;SDS011;27286;47.870;19.006;2023-02-04T02:10:11;8.05;;;1.38;;
41572;SDS011;27286;47.870;19.006;2023-02-04T02:12:38;11.65;;;1.63;;
41572;SDS011;27286;47.870;19.006;2023-02-04T02:15:03;13.35;;;1.38;;
41572;SDS011;27286;47.870;19.006;2023-02-04T02:17:29;12.00;;;2.65;;
41572;SDS011;27286;47.870;19.006;2023-02-04T02:19:55;8.15;;;0.90;;
41572;SDS011;27286;47.870;19.006;2023-02-04T02:22:28;13.93;;;1.98;;
41572;SDS011;27286;47.870;19.006;2023-02-04T02:24:56;8.65;;;0.93;;
41572;SDS011;27286;47.870;19.006;2023-02-04T02:27:22;4.55;;;1.00;;
41572;SDS011;27286;47.870;19.006;2023-02-04T02:29:47;9.98;;;1.45;;
41572;SDS011;27286;47.870;19.006;2023-02-04T02:32:14;10.25;;;1.05;;
41572;SDS011;27286;47.870;19.006;2023-02-04T02:34:40;7.88;;;1.00;;
41572;SDS011;27286;47.870;19.006;2023-02-04T02:37:07;8.48;;;0.68;;
41572;SDS011;27286;47.870;19.006;2023-02-04T02:39:33;10.52;;;1.90;;
41572;SDS011;27286;47.870;19.006;2023-02-04T02:42:00;8.57;;;1.15;;
41572;SDS011;27286;47.870;19.006;2023-02-04T02:44:26;10.80;;;1.00;;
41572;SDS011;27286;47.870;19.006;2023-02-04T02:46:52;11.27;;;2.60;;
41572;SDS011;27286;47.870;19.006;2023-02-04T02:49:18;7.85;;;0.80;;
41572;SDS011;27286;47.870;19.006;2023-02-04T02:51:45;5.55;;;0.70;;
41572;SDS011;27286;47.870;19.006;2023-02-04T02:56:48;11.57;;;0.98;;
41572;SDS011;27286;47.870;19.006;2023-02-04T02:59:14;11.77;;;1.83;;
41572;SDS011;27286;47.870;19.006;2023-02-04T03:01:41;4.88;;;0.85;;
41572;SDS011;27286;47.870;19.006;2023-02-04T03:04:07;6.38;;;0.70;;
41572;SDS011;27286;47.870;19.006;2023-02-04T03:06:34;3.85;;;1.10;;
41572;SDS011;27286;47.870;19.006;2023-02-04T03:09:00;8.98;;;1.55;;
41572;SDS011;27286;47.870;19.006;2023-02-04T03:11:26;5.75;;;1.30;;
41572;SDS011;27286;47.870;19.006;2023-02-04T03:13:53;10.00;;;1.30;;
41572;SDS011;27286;47.870;19.006;2023-02-04T03:16:21;10.82;;;1.25;;
41572;SDS011;27286;47.870;19.006;2023-02-04T03:18:46;9.50;;;0.70;;
41572;SDS011;27286;47.870;19.006;2023-02-04T03:21:13;7.55;;;0.93;;
41572;SDS011;27286;47.870;19.006;2023-02-04T03:23:38;5.95;;;0.98;;
41572;SDS011;27286;47.870;19.006;2023-02-04T03:26:04;8.20;;;0.63;;
41572;SDS011;27286;47.870;19.006;2023-02-04T03:28:30;7.82;;;0.85;;
41572;SDS011;27286;47.870;19.006;2023-02-04T03:30:56;9.32;;;1.15;;
41572;SDS011;27286;47.870;19.006;2023-02-04T03:33:23;6.47;;;0.50;;
41572;SDS011;27286;47.870;19.006;2023-02-04T03:35:50;2.60;;;0.52;;
41572;SDS011;27286;47.870;19.006;2023-02-04T03:38:16;5.90;;;0.50;;
41572;SDS011;27286;47.870;19.006;2023-02-04T03:40:42;6.40;;;0.55;;
41572;SDS011;27286;47.870;19.006;2023-02-04T03:43:08;4.97;;;0.70;;
41572;SDS011;27286;47.870;19.006;2023-02-04T03:45:33;7.03;;;0.82;;
41572;SDS011;27286;47.870;19.006;2023-02-04T03:47:59;9.52;;;0.63;;
41572;SDS011;27286;47.870;19.006;2023-02-04T03:50:24;11.38;;;0.77;;
41572;SDS011;27286;47.870;19.006;2023-02-04T03:52:50;5.05;;;0.60;;
41572;SDS011;27286;47.870;19.006;2023-02-04T03:55:16;7.75;;;0.95;;
41572;SDS011;27286;47.870;19.006;2023-02-04T03:57:42;5.88;;;2.08;;
41572;SDS011;27286;47.870;19.006;2023-02-04T04:00:07;7.70;;;0.90;;
41572;SDS011;27286;47.870;19.006;2023-02-04T04:02:34;7.53;;;0.93;;
41572;SDS011;27286;47.870;19.006;2023-02-04T04:04:59;10.98;;;0.90;;
41572;SDS011;27286;47.870;19.006;2023-02-04T04:07:24;12.23;;;1.67;;
41572;SDS011;27286;47.870;19.006;2023-02-04T04:09:50;4.78;;;0.40;;
41572;SDS011;27286;47.870;19.006;2023-02-04T04:12:15;5.00;;;0.88;;
41572;SDS011;27286;47.870;19.006;2023-02-04T04:14:41;8.55;;;1.05;;
41572;SDS011;27286;47.870;19.006;2023-02-04T04:17:06;7.88;;;0.95;;
41572;SDS011;27286;47.870;19.006;2023-02-04T04:19:31;7.85;;;0.63;;
41572;SDS011;27286;47.870;19.006;2023-02-04T04:21:57;6.82;;;0.77;;
41572;SDS011;27286;47.870;19.006;2023-02-04T04:24:22;12.38;;;1.48;;
41572;SDS011;27286;47.870;19.006;2023-02-04T04:26:48;6.45;;;0.75;;
41572;SDS011;27286;47.870;19.006;2023-02-04T04:29:13;8.52;;;0.90;;
41572;SDS011;27286;47.870;19.006;2023-02-04T04:31:39;7.55;;;1.25;;
41572;SDS011;27286;47.870;19.006;2023-02-04T04:34:04;10.77;;;0.93;;
41572;SDS011;27286;47.870;19.006;2023-02-04T04:36:29;12.35;;;1.42;;
41572;SDS011;27286;47.870;19.006;2023-02-04T04:38:55;9.52;;;1.02;;
41572;SDS011;27286;47.870;19.006;2023-02-04T04:41:20;9.68;;;1.30;;
41572;SDS011;27286;47.870;19.006;2023-02-04T04:43:46;11.82;;;1.08;;
41572;SDS011;27286;47.870;19.006;2023-02-04T04:46:11;8.07;;;1.13;;
41572;SDS011;27286;47.870;19.006;2023-02-04T04:48:36;7.85;;;1.40;;
41572;SDS011;27286;47.870;19.006;2023-02-04T04:51:02;7.72;;;1.02;;
41572;SDS011;27286;47.870;19.006;2023-02-04T04:53:28;4.78;;;0.70;;
41572;SDS011;27286;47.870;19.006;2023-02-04T04:55:54;7.78;;;0.93;;
41572;SDS011;27286;47.870;19.006;2023-02-04T04:58:19;3.42;;;0.70;;
41572;SDS011;27286;47.870;19.006;2023-02-04T05:00:45;5.35;;;0.68;;
41572;SDS011;27286;47.870;19.006;2023-02-04T05:03:10;6.10;;;0.80;;
41572;SDS011;27286;47.870;19.006;2023-02-04T05:05:36;4.15;;;0.70;;
41572;SDS011;27286;47.870;19.006;2023-02-04T05:08:05;7.20;;;0.55;;
41572;SDS011;27286;47.870;19.006;2023-02-04T05:10:34;5.65;;;0.75;;
41572;SDS011;27286;47.870;19.006;2023-02-04T05:13:00;6.63;;;0.95;;
41572;SDS011;27286;47.870;19.006;2023-02-04T05:15:26;7.72;;;1.13;;
41572;SDS011;27286;47.870;19.006;2023-02-04T05:17:51;7.07;;;1.30;;
41572;SDS011;27286;47.870;19.006;2023-02-04T05:20:17;3.58;;;0.43;;
41572;SDS011;27286;47.870;19.006;2023-02-04T05:22:43;3.13;;;0.30;;
41572;SDS011;27286;47.870;19.006;2023-02-04T05:25:08;4.55;;;0.60;;
41572;SDS011;27286;47.870;19.006;2023-02-04T05:27:34;2.88;;;0.20;;
41572;SDS011;27286;47.870;19.006;2023-02-04T05:30:00;2.88;;;0.20;;
41572;SDS011;27286;47.870;19.006;2023-02-04T05:32:25;3.08;;;0.35;;
41572;SDS011;27286;47.870;19.006;2023-02-04T05:34:51;1.63;;;0.13;;
41572;SDS011;27286;47.870;19.006;2023-02-04T05:37:16;2.38;;;0.30;;
41572;SDS011;27286;47.870;19.006;2023-02-04T05:39:44;5.15;;;0.82;;
41572;SDS011;27286;47.870;19.006;2023-02-04T05:42:11;1.17;;;0.20;;
41572;SDS011;27286;47.870;19.006;2023-02-04T05:44:36;1.33;;;0.20;;
41572;SDS011;27286;47.870;19.006;2023-02-04T05:47:02;2.47;;;0.22;;
41572;SDS011;27286;47.870;19.006;2023-02-04T05:49:27;1.33;;;0.68;;
41572;SDS011;27286;47.870;19.006;2023-02-04T05:51:53;0.85;;;0.10;;
41572;SDS011;27286;47.870;19.006;2023-02-04T05:54:18;1.88;;;0.10;;
41572;SDS011;27286;47.870;19.006;2023-02-04T05:56:47;0.63;;;0.17;;
41572;SDS011;27286;47.870;19.006;2023-02-04T05:59:12;2.85;;;0.10;;
41572;SDS011;27286;47.870;19.006;2023-02-04T06:01:38;1.20;;;0.10;;
41572;SDS011;27286;47.870;19.006;2023-02-04T06:04:03;0.35;;;0.08;;
41572;SDS011;27286;47.870;19.006;2023-02-04T06:06:28;0.50;;;0.00;;
41572;SDS011;27286;47.870;19.006;2023-02-04T06:08:54;0.30;;;0.03;;
41572;SDS011;27286;47.870;19.006;2023-02-04T06:11:19;0.77;;;0.00;;
41572;SDS011;27286;47.870;19.006;2023-02-04T06:13:45;2.60;;;0.80;;
41572;SDS011;27286;47.870;19.006;2023-02-04T06:16:10;0.30;;;0.20;;
41572;SDS011;27286;47.870;19.006;2023-02-04T06:18:36;5.38;;;0.10;;
41572;SDS011;27286;47.870;19.006;2023-02-04T06:21:01;0.30;;;0.00;;
41572;SDS011;27286;47.870;19.006;2023-02-04T06:23:29;0.32;;;0.00;;
41572;SDS011;27286;47.870;19.006;2023-02-04T06:25:55;0.82;;;0.10;;
41572;SDS011;27286;47.870;19.006;2023-02-04T06:28:20;0.30;;;0.10;;
41572;SDS011;27286;47.870;19.006;2023-02-04T06:30:46;0.17;;;0.00;;
41572;SDS011;27286;47.870;19.006;2023-02-04T06:33:11;0.20;;;0.00;;
41572;SDS011;27286;47.870;19.006;2023-02-04T06:35:36;0.40;;;0.10;;
41572;SDS011;27286;47.870;19.006;2023-02-04T06:38:02;1.33;;;0.10;;
41572;SDS011;27286;47.870;19.006;2023-02-04T06:40:27;0.60;;;0.10;;
41572;SDS011;27286;47.870;19.006;2023-02-04T06:42:53;0.93;;;0.10;;
41572;SDS011;27286;47.870;19.006;2023-02-04T06:45:18;2.17;;;0.30;;
41572;SDS011;27286;47.870;19.006;2023-02-04T06:47:43;0.80;;;0.20;;
41572;SDS011;27286;47.870;19.006;2023-02-04T06:50:09;1.48;;;0.30;;
41572;SDS011;27286;47.870;19.006;2023-02-04T06:52:34;2.47;;;0.20;;
41572;SDS011;27286;47.870;19.006;2023-02-04T06:55:01;0.93;;;0.20;;
41572;SDS011;27286;47.870;19.006;2023-02-04T06:57:26;1.85;;;0.40;;
41572;SDS011;27286;47.870;19.006;2023-02-04T06:59:52;1.50;;;0.25;;
41572;SDS011;27286;47.870;19.006;2023-02-04T07:02:18;1.25;;;0.30;;
41572;SDS011;27286;47.870;19.006;2023-02-04T07:04:44;1.50;;;0.30;;
41572;SDS011;27286;47.870;19.006;2023-02-04T07:07:09;1.13;;;0.28;;
41572;SDS011;27286;47.870;19.006;2023-02-04T07:09:35;0.80;;;0.30;;
41572;SDS011;27286;47.870;19.006;2023-02-04T07:12:01;1.35;;;0.43;;
41572;SDS011;27286;47.870;19.006;2023-02-04T07:14:27;2.65;;;0.45;;
41572;SDS011;27286;47.870;19.006;2023-02-04T07:16:52;1.10;;;0.45;;
41572;SDS011;27286;47.870;19.006;2023-02-04T07:19:17;2.50;;;0.95;;
41572;SDS011;27286;47.870;19.006;2023-02-04T07:21:43;2.28;;;1.02;;
41572;SDS011;27286;47.870;19.006;2023-02-04T07:24:08;1.90;;;0.55;;
41572;SDS011;27286;47.870;19.006;2023-02-04T07:26:34;2.45;;;0.70;;
41572;SDS011;27286;47.870;19.006;2023-02-04T07:28:59;2.90;;;0.80;;
41572;SDS011;27286;47.870;19.006;2023-02-04T07:31:24;3.28;;;1.05;;
41572;SDS011;27286;47.870;19.006;2023-02-04T07:33:50;1.88;;;0.70;;
41572;SDS011;27286;47.870;19.006;2023-02-04T07:36:15;3.95;;;1.08;;
41572;SDS011;27286;47.870;19.006;2023-02-04T07:38:41;2.28;;;0.73;;
41572;SDS011;27286;47.870;19.006;2023-02-04T07:41:06;2.70;;;0.85;;
41572;SDS011;27286;47.870;19.006;2023-02-04T07:43:32;3.83;;;1.50;;
41572;SDS011;27286;47.870;19.006;2023-02-04T07:45:57;3.53;;;0.90;;
41572;SDS011;27286;47.870;19.006;2023-02-04T07:48:22;2.70;;;1.08;;
41572;SDS011;27286;47.870;19.006;2023-02-04T07:50:48;1.85;;;0.55;;
41572;SDS011;27286;47.870;19.006;2023-02-04T07:53:13;4.20;;;1.10;;
41572;SDS011;27286;47.870;19.006;2023-02-04T07:55:39;5.90;;;1.80;;
41572;SDS011;27286;47.870;19.006;2023-02-04T07:58:04;2.35;;;1.00;;
41572;SDS011;27286;47.870;19.006;2023-02-04T08:00:29;2.72;;;0.90;;
41572;SDS011;27286;47.870;19.006;2023-02-04T08:02:55;2.85;;;0.93;;
41572;SDS011;27286;47.870;19.006;2023-02-04T08:05:20;3.00;;;0.73;;
41572;SDS011;27286;47.870;19.006;2023-02-04T08:07:46;2.30;;;0.93;;
41572;SDS011;27286;47.870;19.006;2023-02-04T08:10:11;3.15;;;0.88;;
41572;SDS011;27286;47.870;19.006;2023-02-04T08:12:37;5.63;;;1.25;;
41572;SDS011;27286;47.870;19.006;2023-02-04T08:17:32;2.03;;;0.85;;
41572;SDS011;27286;47.870;19.006;2023-02-04T08:19:57;2.55;;;0.90;;
41572;SDS011;27286;47.870;19.006;2023-02-04T08:22:23;2.80;;;0.82;;
41572;SDS011;27286;47.870;19.006;2023-02-04T08:24:48;3.15;;;1.10;;
41572;SDS011;27286;47.870;19.006;2023-02-04T08:27:14;2.17;;;0.80;;
41572;SDS011;27286;47.870;19.006;2023-02-04T08:29:39;2.13;;;0.60;;
41572;SDS011;27286;47.870;19.006;2023-02-04T08:32:05;1.70;;;0.50;;
41572;SDS011;27286;47.870;19.006;2023-02-04T08:34:30;2.90;;;0.80;;
41572;SDS011;27286;47.870;19.006;2023-02-04T08:36:56;2.03;;;0.70;;
41572;SDS011;27286;47.870;19.006;2023-02-04T08:39:21;1.67;;;0.43;;
41572;SDS011;27286;47.870;19.006;2023-02-04T08:41:46;4.57;;;2.17;;
41572;SDS011;27286;47.870;19.006;2023-02-04T08:44:15;6.22;;;0.88;;
41572;SDS011;27286;47.870;19.006;2023-02-04T08:46:41;2.63;;;0.70;;
41572;SDS011;27286;47.870;19.006;2023-02-04T08:49:06;3.25;;;1.02;;
41572;SDS011;27286;47.870;19.006;2023-02-04T08:51:32;2.35;;;0.40;;
41572;SDS011;27286;47.870;19.006;2023-02-04T08:53:57;2.78;;;1.10;;
41572;SDS011;27286;47.870;19.006;2023-02-04T08:56:23;1.52;;;0.30;;
41572;SDS011;27286;47.870;19.006;2023-02-04T08:58:48;1.90;;;0.52;;
41572;SDS011;27286;47.870;19.006;2023-02-04T09:01:14;2.45;;;0.45;;
41572;SDS011;27286;47.870;19.006;2023-02-04T09:03:39;2.00;;;0.30;;
41572;SDS011;27286;47.870;19.006;2023-02-04T09:06:05;2.35;;;0.30;;
41572;SDS011;27286;47.870;19.006;2023-02-04T09:08:31;1.10;;;0.25;;
41572;SDS011;27286;47.870;19.006;2023-02-04T09:10:57;2.17;;;0.70;;
41572;SDS011;27286;47.870;19.006;2023-02-04T09:13:23;1.48;;;0.45;;
41572;SDS011;27286;47.870;19.006;2023-02-04T09:15:49;1.15;;;0.20;;
41572;SDS011;27286;47.870;19.006;2023-02-04T09:18:15;1.42;;;0.30;;
41572;SDS011;27286;47.870;19.006;2023-02-04T09:20:43;2.55;;;0.38;;
41572;SDS011;27286;47.870;19.006;2023-02-04T09:23:08;1.23;;;0.40;;
41572;SDS011;27286;47.870;19.006;2023-02-04T09:25:36;3.40;;;0.22;;
41572;SDS011;27286;47.870;19.006;2023-02-04T09:28:03;0.70;;;0.20;;
41572;SDS011;27286;47.870;19.006;2023-02-04T09:30:29;1.38;;;0.20;;
41572;SDS011;27286;47.870;19.006;2023-02-04T09:32:54;1.08;;;0.30;;
41572;SDS011;27286;47.870;19.006;2023-02-04T09:35:20;0.75;;;0.30;;
41572;SDS011;27286;47.870;19.006;2023-02-04T09:37:45;2.47;;;0.30;;
41572;SDS011;27286;47.870;19.006;2023-02-04T09:40:15;2.80;;;1.10;;
41572;SDS011;27286;47.870;19.006;2023-02-04T09:42:42;0.75;;;0.20;;
41572;SDS011;27286;47.870;19.006;2023-02-04T09:45:25;0.85;;;0.20;;
41572;SDS011;27286;47.870;19.006;2023-02-04T09:47:52;0.73;;;0.20;;
41572;SDS011;27286;47.870;19.006;2023-02-04T09:50:19;1.73;;;0.45;;
41572;SDS011;27286;47.870;19.006;2023-02-04T09:52:48;0.70;;;0.20;;
41572;SDS011;27286;47.870;19.006;2023-02-04T09:55:16;0.65;;;0.20;;
41572;SDS011;27286;47.870;19.006;2023-02-04T09:57:44;0.55;;;0.20;;
41572;SDS011;27286;47.870;19.006;2023-02-04T10:00:17;3.80;;;0.30;;
41572;SDS011;27286;47.870;19.006;2023-02-04T10:05:18;0.70;;;0.20;;
41572;SDS011;27286;47.870;19.006;2023-02-04T10:07:48;1.13;;;0.30;;
41572;SDS011;27286;47.870;19.006;2023-02-04T10:10:21;1.83;;;0.20;;
41572;SDS011;27286;47.870;19.006;2023-02-04T10:12:50;1.02;;;0.25;;
41572;SDS011;27286;47.870;19.006;2023-02-04T10:15:18;1.02;;;0.30;;
41572;SDS011;27286;47.870;19.006;2023-02-04T10:17:49;0.80;;;0.20;;
41572;SDS011;27286;47.870;19.006;2023-02-04T10:20:18;0.68;;;0.20;;
41572;SDS011;27286;47.870;19.006;2023-02-04T10:22:46;1.27;;;0.20;;
41572;SDS011;27286;47.870;19.006;2023-02-04T10:25:13;1.25;;;0.20;;
41572;SDS011;27286;47.870;19.006;2023-02-04T10:27:47;3.42;;;0.40;;
41572;SDS011;27286;47.870;19.006;2023-02-04T10:30:21;1.85;;;0.32;;
41572;SDS011;27286;47.870;19.006;2023-02-04T10:32:47;0.90;;;0.45;;
41572;SDS011;27286;47.870;19.006;2023-02-04T10:35:14;0.93;;;0.22;;
41572;SDS011;27286;47.870;19.006;2023-02-04T10:37:41;2.45;;;0.47;;
41572;SDS011;27286;47.870;19.006;2023-02-04T10:40:26;2.03;;;0.40;;
41572;SDS011;27286;47.870;19.006;2023-02-04T10:42:54;0.80;;;0.20;;
41572;SDS011;27286;47.870;19.006;2023-02-04T10:45:20;1.17;;;0.28;;
41572;SDS011;27286;47.870;19.006;2023-02-04T10:47:50;1.55;;;0.30;;
41572;SDS011;27286;47.870;19.006;2023-02-04T10:50:17;0.85;;;0.20;;
41572;SDS011;27286;47.870;19.006;2023-02-04T10:52:45;0.70;;;0.30;;
41572;SDS011;27286;47.870;19.006;2023-02-04T10:55:15;0.95;;;0.28;;
41572;SDS011;27286;47.870;19.006;2023-02-04T10:57:43;1.00;;;0.28;;
41572;SDS011;27286;47.870;19.006;2023-02-04T11:00:15;1.35;;;0.30;;
41572;SDS011;27286;47.870;19.006;2023-02-04T11:05:17;0.93;;;0.20;;
41572;SDS011;27286;47.870;19.006;2023-02-04T11:07:45;0.88;;;0.20;;
41572;SDS011;27286;47.870;19.006;2023-02-04T11:10:16;0.70;;;0.25;;
41572;SDS011;27286;47.870;19.006;2023-02-04T11:12:46;2.25;;;0.40;;
41572;SDS011;27286;47.870;19.006;2023-02-04T11:15:38;1.08;;;0.35;;
41572;SDS011;27286;47.870;19.006;2023-02-04T11:18:08;0.82;;;0.30;;
41572;SDS011;27286;47.870;19.006;2023-02-04T11:20:37;4.65;;;0.30;;
41572;SDS011;27286;47.870;19.006;2023-02-04T11:26:11;3.38;;;0.57;;
41572;SDS011;27286;47.870;19.006;2023-02-04T11:33:50;3.58;;;0.30;;
41572;SDS011;27286;47.870;19.006;2023-02-04T11:41:57;1.38;;;0.20;;
41572;SDS011;27286;47.870;19.006;2023-02-04T11:44:24;2.17;;;0.20;;
41572;SDS011;27286;47.870;19.006;2023-02-04T11:46:50;1.02;;;0.25;;
41572;SDS011;27286;47.870;19.006;2023-02-04T11:49:19;0.45;;;0.20;;
41572;SDS011;27286;47.870;19.006;2023-02-04T11:51:47;1.85;;;0.43;;
41572;SDS011;27286;47.870;19.006;2023-02-04T11:54:14;1.27;;;0.20;;
41572;SDS011;27286;47.870;19.006;2023-02-04T11:56:43;0.65;;;0.25;;
41572;SDS011;27286;47.870;19.006;2023-02-04T11:59:10;1.95;;;0.30;;
41572;SDS011;27286;47.870;19.006;2023-02-04T12:01:36;0.90;;;0.20;;
41572;SDS011;27286;47.870;19.006;2023-02-04T12:04:03;0.50;;;0.20;;
41572;SDS011;27286;47.870;19.006;2023-02-04T12:06:35;0.60;;;0.30;;
41572;SDS011;27286;47.870;19.006;2023-02-04T12:11:51;0.68;;;0.20;;
41572;SDS011;27286;47.870;19.006;2023-02-04T12:14:17;0.55;;;0.28;;
41572;SDS011;27286;47.870;19.006;2023-02-04T12:16:44;1.52;;;0.30;;
41572;SDS011;27286;47.870;19.006;2023-02-04T12:19:10;0.95;;;0.30;;
41572;SDS011;27286;47.870;19.006;2023-02-04T12:21:39;0.70;;;0.20;;
41572;SDS011;27286;47.870;19.006;2023-02-04T12:24:05;1.52;;;0.30;;
41572;SDS011;27286;47.870;19.006;2023-02-04T12:26:31;1.38;;;0.25;;
41572;SDS011;27286;47.870;19.006;2023-02-04T12:28:56;1.15;;;0.38;;
41572;SDS011;27286;47.870;19.006;2023-02-04T12:31:25;1.33;;;0.40;;
41572;SDS011;27286;47.870;19.006;2023-02-04T12:33:50;0.85;;;0.30;;
41572;SDS011;27286;47.870;19.006;2023-02-04T12:36:18;1.17;;;0.40;;
41572;SDS011;27286;47.870;19.006;2023-02-04T12:38:43;0.85;;;0.20;;
41572;SDS011;27286;47.870;19.006;2023-02-04T12:41:09;1.17;;;0.40;;
41572;SDS011;27286;47.870;19.006;2023-02-04T12:43:34;1.38;;;0.40;;
41572;SDS011;27286;47.870;19.006;2023-02-04T12:46:00;1.55;;;0.38;;
41572;SDS011;27286;47.870;19.006;2023-02-04T12:48:25;1.10;;;0.40;;
41572;SDS011;27286;47.870;19.006;2023-02-04T12:50:51;1.17;;;0.30;;
41572;SDS011;27286;47.870;19.006;2023-02-04T12:53:16;1.85;;;0.40;;
41572;SDS011;27286;47.870;19.006;2023-02-04T12:55:41;1.40;;;0.30;;
41572;SDS011;27286;47.870;19.006;2023-02-04T12:58:07;1.00;;;0.40;;
41572;SDS011;27286;47.870;19.006;2023-02-04T13:00:32;1.67;;;0.40;;
41572;SDS011;27286;47.870;19.006;2023-02-04T13:02:58;1.20;;;0.40;;
41572;SDS011;27286;47.870;19.006;2023-02-04T13:05:24;1.67;;;0.40;;
41572;SDS011;27286;47.870;19.006;2023-02-04T13:07:50;2.03;;;0.40;;
41572;SDS011;27286;47.870;19.006;2023-02-04T13:10:15;1.80;;;0.40;;
41572;SDS011;27286;47.870;19.006;2023-02-04T13:12:42;3.28;;;0.50;;
41572;SDS011;27286;47.870;19.006;2023-02-04T13:15:08;3.50;;;0.50;;
41572;SDS011;27286;47.870;19.006;2023-02-04T13:17:34;1.48;;;0.43;;
41572;SDS011;27286;47.870;19.006;2023-02-04T13:19:59;4.13;;;0.50;;
41572;SDS011;27286;47.870;19.006;2023-02-04T13:22:25;1.30;;;0.30;;
41572;SDS011;27286;47.870;19.006;2023-02-04T13:24:51;1.38;;;0.40;;
41572;SDS011;27286;47.870;19.006;2023-02-04T13:27:16;2.47;;;0.45;;
41572;SDS011;27286;47.870;19.006;2023-02-04T13:29:42;1.45;;;0.40;;
41572;SDS011;27286;47.870;19.006;2023-02-04T13:32:08;1.30;;;0.40;;
41572;SDS011;27286;47.870;19.006;2023-02-04T13:34:34;2.40;;;0.90;;
41572;SDS011;27286;47.870;19.006;2023-02-04T13:37:00;2.47;;;0.50;;
41572;SDS011;27286;47.870;19.006;2023-02-04T13:39:25;2.00;;;0.60;;
41572;SDS011;27286;47.870;19.006;2023-02-04T13:41:51;2.45;;;0.50;;
41572;SDS011;27286;47.870;19.006;2023-02-04T13:44:16;2.47;;;0.57;;
41572;SDS011;27286;47.870;19.006;2023-02-04T13:46:41;2.38;;;0.70;;
41572;SDS011;27286;47.870;19.006;2023-02-04T13:49:07;2.78;;;0.93;;
41572;SDS011;27286;47.870;19.006;2023-02-04T13:51:32;1.88;;;0.70;;
41572;SDS011;27286;47.870;19.006;2023-02-04T13:53:58;2.17;;;0.77;;
41572;SDS011;27286;47.870;19.006;2023-02-04T13:56:24;2.60;;;0.95;;
41572;SDS011;27286;47.870;19.006;2023-02-04T13:58:50;4.47;;;1.00;;
41572;SDS011;27286;47.870;19.006;2023-02-04T14:01:16;2.85;;;0.88;;
41572;SDS011;27286;47.870;19.006;2023-02-04T14:03:41;1.95;;;0.65;;
41572;SDS011;27286;47.870;19.006;2023-02-04T14:06:08;2.03;;;0.50;;
41572;SDS011;27286;47.870;19.006;2023-02-04T14:08:33;3.35;;;1.05;;
41572;SDS011;27286;47.870;19.006;2023-02-04T14:10:59;3.47;;;1.25;;
41572;SDS011;27286;47.870;19.006;2023-02-04T14:13:25;2.55;;;0.60;;
41572;SDS011;27286;47.870;19.006;2023-02-04T14:15:51;1.80;;;0.70;;
41572;SDS011;27286;47.870;19.006;2023-02-04T14:18:16;2.72;;;0.68;;
41572;SDS011;27286;47.870;19.006;2023-02-04T14:20:42;3.10;;;0.70;;
41572;SDS011;27286;47.870;19.006;2023-02-04T14:23:08;8.15;;;1.05;;
41572;SDS011;27286;47.870;19.006;2023-02-04T14:25:36;2.97;;;0.60;;
41572;SDS011;27286;47.870;19.006;2023-02-04T14:28:02;2.17;;;0.85;;
41572;SDS011;27286;47.870;19.006;2023-02-04T14:30:28;2.90;;;0.75;;
41572;SDS011;27286;47.870;19.006;2023-02-04T14:32:54;2.83;;;1.00;;
41572;SDS011;27286;47.870;19.006;2023-02-04T14:35:20;2.17;;;0.80;;
41572;SDS011;27286;47.870;19.006;2023-02-04T14:37:46;3.33;;;1.25;;
41572;SDS011;27286;47.870;19.006;2023-02-04T14:40:13;4.93;;;0.77;;
41572;SDS011;27286;47.870;19.006;2023-02-04T14:42:40;4.95;;;0.90;;
41572;SDS011;27286;47.870;19.006;2023-02-04T14:45:06;4.85;;;1.02;;
41572;SDS011;27286;47.870;19.006;2023-02-04T14:47:33;3.75;;;1.15;;
41572;SDS011;27286;47.870;19.006;2023-02-04T14:49:59;3.03;;;0.68;;
41572;SDS011;27286;47.870;19.006;2023-02-04T14:52:24;3.47;;;1.20;;
41572;SDS011;27286;47.870;19.006;2023-02-04T14:54:50;7.38;;;1.73;;
41572;SDS011;27286;47.870;19.006;2023-02-04T14:57:16;4.30;;;1.00;;